sensor_id;sensor_type;location;lat;lon;timestamp;P1;durP1;ratioP1;P2;durP2;ratioP2
86223;SDS011;76887;48.558;12.170;2024-02-28T00:02:02;205.52;;;36.90;;
86223;SDS011;76887;48.558;12.170;2024-02-28T00:04:28;207.65;;;37.22;;
86223;SDS011;76887;48.558;12.170;2024-02-28T00:06:55;208.57;;;35.88;;
86223;SDS011;76887;48.558;12.170;2024-02-28T00:09:21;223.15;;;39.10;;
86223;SDS011;76887;48.558;12.170;2024-02-28T00:11:48;229.25;;;39.20;;
86223;SDS011;76887;48.558;12.170;2024-02-28T00:14:14;235.00;;;39.33;;
86223;SDS011;76887;48.558;12.170;2024-02-28T00:16:42;226.05;;;38.63;;
86223;SDS011;76887;48.558;12.170;2024-02-28T00:19:12;230.88;;;39.63;;
86223;SDS011;76887;48.558;12.170;2024-02-28T00:21:39;229.45;;;39.17;;
86223;SDS011;76887;48.558;12.170;2024-02-28T00:24:07;227.45;;;41.25;;
86223;SDS011;76887;48.558;12.170;2024-02-28T00:26:34;226.45;;;38.90;;
86223;SDS011;76887;48.558;12.170;2024-02-28T00:29:00;228.32;;;40.97;;
86223;SDS011;76887;48.558;12.170;2024-02-28T00:31:27;228.18;;;40.45;;
86223;SDS011;76887;48.558;12.170;2024-02-28T00:33:53;222.80;;;39.58;;
86223;SDS011;76887;48.558;12.170;2024-02-28T00:38:33;175.18;;;35.28;;
86223;SDS011;76887;48.558;12.170;2024-02-28T00:40:59;198.68;;;37.60;;
86223;SDS011;76887;48.558;12.170;2024-02-28T00:43:26;212.18;;;39.03;;
86223;SDS011;76887;48.558;12.170;2024-02-28T00:45:52;217.13;;;39.53;;
86223;SDS011;76887;48.558;12.170;2024-02-28T00:48:19;214.15;;;38.85;;
86223;SDS011;76887;48.558;12.170;2024-02-28T00:50:45;221.23;;;37.40;;
86223;SDS011;76887;48.558;12.170;2024-02-28T00:55:26;181.48;;;33.72;;
86223;SDS011;76887;48.558;12.170;2024-02-28T00:57:52;193.88;;;38.45;;
86223;SDS011;76887;48.558;12.170;2024-02-28T01:00:19;210.93;;;39.53;;
86223;SDS011;76887;48.558;12.170;2024-02-28T01:02:45;217.90;;;42.63;;
86223;SDS011;76887;48.558;12.170;2024-02-28T01:05:12;217.52;;;39.75;;
86223;SDS011;76887;48.558;12.170;2024-02-28T01:07:38;217.02;;;40.97;;
86223;SDS011;76887;48.558;12.170;2024-02-28T01:10:06;208.32;;;41.60;;
86223;SDS011;76887;48.558;12.170;2024-02-28T01:12:33;218.50;;;41.38;;
86223;SDS011;76887;48.558;12.170;2024-02-28T01:15:00;207.57;;;40.72;;
86223;SDS011;76887;48.558;12.170;2024-02-28T01:17:27;212.55;;;41.42;;
86223;SDS011;76887;48.558;12.170;2024-02-28T01:19:53;200.25;;;39.97;;
86223;SDS011;76887;48.558;12.170;2024-02-28T01:22:20;202.55;;;37.72;;
86223;SDS011;76887;48.558;12.170;2024-02-28T01:24:46;203.38;;;38.92;;
86223;SDS011;76887;48.558;12.170;2024-02-28T01:27:13;206.00;;;39.53;;
86223;SDS011;76887;48.558;12.170;2024-02-28T01:29:40;209.40;;;40.08;;
86223;SDS011;76887;48.558;12.170;2024-02-28T01:32:06;211.48;;;39.53;;
86223;SDS011;76887;48.558;12.170;2024-02-28T01:34:33;201.68;;;39.42;;
86223;SDS011;76887;48.558;12.170;2024-02-28T01:36:59;197.45;;;38.00;;
86223;SDS011;76887;48.558;12.170;2024-02-28T01:39:26;199.20;;;37.35;;
86223;SDS011;76887;48.558;12.170;2024-02-28T01:41:55;191.13;;;38.05;;
86223;SDS011;76887;48.558;12.170;2024-02-28T01:44:23;192.02;;;35.83;;
86223;SDS011;76887;48.558;12.170;2024-02-28T01:46:50;196.63;;;37.60;;
86223;SDS011;76887;48.558;12.170;2024-02-28T01:49:17;199.23;;;38.53;;
86223;SDS011;76887;48.558;12.170;2024-02-28T01:51:44;201.10;;;37.42;;
86223;SDS011;76887;48.558;12.170;2024-02-28T01:54:13;193.63;;;37.55;;
86223;SDS011;76887;48.558;12.170;2024-02-28T01:56:40;192.75;;;36.20;;
86223;SDS011;76887;48.558;12.170;2024-02-28T01:59:07;204.80;;;39.60;;
86223;SDS011;76887;48.558;12.170;2024-02-28T02:01:36;214.20;;;42.13;;
86223;SDS011;76887;48.558;12.170;2024-02-28T02:04:03;206.75;;;39.83;;
86223;SDS011;76887;48.558;12.170;2024-02-28T02:06:30;203.10;;;38.03;;
86223;SDS011;76887;48.558;12.170;2024-02-28T02:08:58;203.43;;;39.40;;
86223;SDS011;76887;48.558;12.170;2024-02-28T02:11:25;210.07;;;41.22;;
86223;SDS011;76887;48.558;12.170;2024-02-28T02:13:52;199.57;;;40.15;;
86223;SDS011;76887;48.558;12.170;2024-02-28T02:16:20;207.68;;;41.67;;
86223;SDS011;76887;48.558;12.170;2024-02-28T02:21:55;184.93;;;39.05;;
86223;SDS011;76887;48.558;12.170;2024-02-28T02:24:24;175.38;;;34.53;;
86223;SDS011;76887;48.558;12.170;2024-02-28T02:26:55;185.88;;;36.90;;
86223;SDS011;76887;48.558;12.170;2024-02-28T02:29:23;175.93;;;34.08;;
86223;SDS011;76887;48.558;12.170;2024-02-28T02:31:50;181.82;;;34.30;;
86223;SDS011;76887;48.558;12.170;2024-02-28T02:34:16;183.73;;;35.40;;
86223;SDS011;76887;48.558;12.170;2024-02-28T02:36:43;175.45;;;34.13;;
86223;SDS011;76887;48.558;12.170;2024-02-28T02:39:09;177.52;;;36.05;;
86223;SDS011;76887;48.558;12.170;2024-02-28T02:41:36;185.07;;;35.28;;
86223;SDS011;76887;48.558;12.170;2024-02-28T02:44:02;178.05;;;35.67;;
86223;SDS011;76887;48.558;12.170;2024-02-28T02:46:29;176.10;;;32.00;;
86223;SDS011;76887;48.558;12.170;2024-02-28T02:48:55;184.75;;;35.22;;
86223;SDS011;76887;48.558;12.170;2024-02-28T02:51:22;181.80;;;34.88;;
86223;SDS011;76887;48.558;12.170;2024-02-28T02:53:49;182.73;;;35.08;;
86223;SDS011;76887;48.558;12.170;2024-02-28T02:56:15;189.73;;;36.80;;
86223;SDS011;76887;48.558;12.170;2024-02-28T02:58:42;179.52;;;35.92;;
86223;SDS011;76887;48.558;12.170;2024-02-28T03:01:08;180.18;;;35.17;;
86223;SDS011;76887;48.558;12.170;2024-02-28T03:03:35;174.02;;;32.33;;
86223;SDS011;76887;48.558;12.170;2024-02-28T03:06:04;186.23;;;35.00;;
86223;SDS011;76887;48.558;12.170;2024-02-28T03:08:34;181.50;;;34.13;;
86223;SDS011;76887;48.558;12.170;2024-02-28T03:11:00;186.52;;;35.08;;
86223;SDS011;76887;48.558;12.170;2024-02-28T03:13:27;180.73;;;33.40;;
86223;SDS011;76887;48.558;12.170;2024-02-28T03:15:54;183.98;;;36.13;;
86223;SDS011;76887;48.558;12.170;2024-02-28T03:18:21;170.85;;;32.47;;
86223;SDS011;76887;48.558;12.170;2024-02-28T03:20:47;174.68;;;33.17;;
86223;SDS011;76887;48.558;12.170;2024-02-28T03:23:14;177.13;;;33.05;;
86223;SDS011;76887;48.558;12.170;2024-02-28T03:25:41;178.10;;;34.65;;
86223;SDS011;76887;48.558;12.170;2024-02-28T03:28:07;180.40;;;35.00;;
86223;SDS011;76887;48.558;12.170;2024-02-28T03:30:34;176.57;;;33.75;;
86223;SDS011;76887;48.558;12.170;2024-02-28T03:33:01;173.68;;;32.55;;
86223;SDS011;76887;48.558;12.170;2024-02-28T03:35:27;172.10;;;31.83;;
86223;SDS011;76887;48.558;12.170;2024-02-28T03:37:54;161.73;;;29.67;;
86223;SDS011;76887;48.558;12.170;2024-02-28T03:40:20;171.23;;;34.05;;
86223;SDS011;76887;48.558;12.170;2024-02-28T03:42:47;167.30;;;32.10;;
86223;SDS011;76887;48.558;12.170;2024-02-28T03:45:13;166.20;;;33.40;;
86223;SDS011;76887;48.558;12.170;2024-02-28T03:47:40;173.48;;;34.38;;
86223;SDS011;76887;48.558;12.170;2024-02-28T03:50:06;165.40;;;32.15;;
86223;SDS011;76887;48.558;12.170;2024-02-28T03:52:33;163.23;;;32.15;;
86223;SDS011;76887;48.558;12.170;2024-02-28T03:55:03;154.13;;;31.85;;
86223;SDS011;76887;48.558;12.170;2024-02-28T03:57:29;162.30;;;32.20;;
86223;SDS011;76887;48.558;12.170;2024-02-28T03:59:56;159.45;;;30.23;;
86223;SDS011;76887;48.558;12.170;2024-02-28T04:02:22;150.07;;;30.67;;
86223;SDS011;76887;48.558;12.170;2024-02-28T04:04:49;156.10;;;31.80;;
86223;SDS011;76887;48.558;12.170;2024-02-28T04:07:15;158.93;;;30.27;;
86223;SDS011;76887;48.558;12.170;2024-02-28T04:09:42;157.48;;;32.63;;
86223;SDS011;76887;48.558;12.170;2024-02-28T04:12:08;160.52;;;31.25;;
86223;SDS011;76887;48.558;12.170;2024-02-28T04:14:37;159.40;;;32.80;;
86223;SDS011;76887;48.558;12.170;2024-02-28T04:17:04;170.20;;;35.22;;
86223;SDS011;76887;48.558;12.170;2024-02-28T04:19:34;169.55;;;34.50;;
86223;SDS011;76887;48.558;12.170;2024-02-28T04:22:05;158.88;;;31.33;;
86223;SDS011;76887;48.558;12.170;2024-02-28T04:24:32;172.65;;;32.03;;
86223;SDS011;76887;48.558;12.170;2024-02-28T04:26:59;168.75;;;34.92;;
86223;SDS011;76887;48.558;12.170;2024-02-28T04:29:25;176.68;;;33.65;;
86223;SDS011;76887;48.558;12.170;2024-02-28T04:31:52;174.15;;;34.25;;
86223;SDS011;76887;48.558;12.170;2024-02-28T04:34:18;175.10;;;33.67;;
86223;SDS011;76887;48.558;12.170;2024-02-28T04:36:45;172.70;;;33.55;;
86223;SDS011;76887;48.558;12.170;2024-02-28T04:41:31;162.93;;;32.08;;
86223;SDS011;76887;48.558;12.170;2024-02-28T04:43:57;178.75;;;33.03;;
86223;SDS011;76887;48.558;12.170;2024-02-28T04:46:24;180.50;;;33.50;;
86223;SDS011;76887;48.558;12.170;2024-02-28T04:48:50;180.68;;;33.65;;
86223;SDS011;76887;48.558;12.170;2024-02-28T04:51:17;179.43;;;34.88;;
86223;SDS011;76887;48.558;12.170;2024-02-28T04:53:44;176.75;;;32.22;;
86223;SDS011;76887;48.558;12.170;2024-02-28T04:56:10;172.82;;;32.83;;
86223;SDS011;76887;48.558;12.170;2024-02-28T04:58:37;178.38;;;34.15;;
86223;SDS011;76887;48.558;12.170;2024-02-28T05:01:04;179.80;;;34.03;;
86223;SDS011;76887;48.558;12.170;2024-02-28T05:03:31;176.27;;;33.58;;
86223;SDS011;76887;48.558;12.170;2024-02-28T05:05:57;168.60;;;32.60;;
86223;SDS011;76887;48.558;12.170;2024-02-28T05:08:24;188.98;;;36.42;;
86223;SDS011;76887;48.558;12.170;2024-02-28T05:10:51;187.00;;;35.47;;
86223;SDS011;76887;48.558;12.170;2024-02-28T05:13:18;195.85;;;37.55;;
86223;SDS011;76887;48.558;12.170;2024-02-28T05:15:45;198.57;;;36.72;;
86223;SDS011;76887;48.558;12.170;2024-02-28T05:18:11;192.80;;;37.17;;
86223;SDS011;76887;48.558;12.170;2024-02-28T05:20:38;200.25;;;38.45;;
86223;SDS011;76887;48.558;12.170;2024-02-28T05:23:04;184.85;;;34.97;;
86223;SDS011;76887;48.558;12.170;2024-02-28T05:25:31;194.15;;;36.72;;
86223;SDS011;76887;48.558;12.170;2024-02-28T05:27:57;208.15;;;40.60;;
86223;SDS011;76887;48.558;12.170;2024-02-28T05:30:24;195.00;;;37.97;;
86223;SDS011;76887;48.558;12.170;2024-02-28T05:32:50;199.00;;;36.47;;
86223;SDS011;76887;48.558;12.170;2024-02-28T05:35:17;192.00;;;36.13;;
86223;SDS011;76887;48.558;12.170;2024-02-28T05:37:44;197.88;;;37.75;;
86223;SDS011;76887;48.558;12.170;2024-02-28T05:40:13;198.40;;;37.17;;
86223;SDS011;76887;48.558;12.170;2024-02-28T05:42:39;195.55;;;38.88;;
86223;SDS011;76887;48.558;12.170;2024-02-28T05:45:06;197.32;;;38.47;;
86223;SDS011;76887;48.558;12.170;2024-02-28T05:47:33;204.15;;;38.78;;
86223;SDS011;76887;48.558;12.170;2024-02-28T05:50:00;209.73;;;38.15;;
86223;SDS011;76887;48.558;12.170;2024-02-28T05:52:26;209.40;;;41.45;;
86223;SDS011;76887;48.558;12.170;2024-02-28T05:54:53;212.80;;;42.17;;
86223;SDS011;76887;48.558;12.170;2024-02-28T05:57:20;212.90;;;40.35;;
86223;SDS011;76887;48.558;12.170;2024-02-28T05:59:46;206.38;;;41.55;;
86223;SDS011;76887;48.558;12.170;2024-02-28T06:02:13;204.73;;;41.70;;
86223;SDS011;76887;48.558;12.170;2024-02-28T06:04:39;202.93;;;38.65;;
86223;SDS011;76887;48.558;12.170;2024-02-28T06:07:06;200.30;;;36.88;;
86223;SDS011;76887;48.558;12.170;2024-02-28T06:09:32;204.52;;;41.05;;
86223;SDS011;76887;48.558;12.170;2024-02-28T06:11:59;206.65;;;40.83;;
86223;SDS011;76887;48.558;12.170;2024-02-28T06:14:28;212.80;;;42.67;;
86223;SDS011;76887;48.558;12.170;2024-02-28T06:16:54;216.68;;;41.88;;
86223;SDS011;76887;48.558;12.170;2024-02-28T06:19:20;220.43;;;39.22;;
86223;SDS011;76887;48.558;12.170;2024-02-28T06:21:47;216.45;;;40.60;;
86223;SDS011;76887;48.558;12.170;2024-02-28T06:24:13;210.70;;;39.90;;
86223;SDS011;76887;48.558;12.170;2024-02-28T06:26:40;220.02;;;42.22;;
86223;SDS011;76887;48.558;12.170;2024-02-28T06:29:08;219.93;;;40.28;;
86223;SDS011;76887;48.558;12.170;2024-02-28T06:31:35;221.80;;;41.90;;
86223;SDS011;76887;48.558;12.170;2024-02-28T06:34:02;215.15;;;39.47;;
86223;SDS011;76887;48.558;12.170;2024-02-28T06:36:30;219.63;;;41.42;;
86223;SDS011;76887;48.558;12.170;2024-02-28T06:38:57;220.98;;;40.30;;
86223;SDS011;76887;48.558;12.170;2024-02-28T06:41:24;212.93;;;41.42;;
86223;SDS011;76887;48.558;12.170;2024-02-28T06:43:51;216.85;;;41.63;;
86223;SDS011;76887;48.558;12.170;2024-02-28T06:46:17;220.57;;;39.88;;
86223;SDS011;76887;48.558;12.170;2024-02-28T06:48:44;216.32;;;42.38;;
86223;SDS011;76887;48.558;12.170;2024-02-28T06:51:10;214.98;;;40.38;;
86223;SDS011;76887;48.558;12.170;2024-02-28T06:53:40;221.10;;;41.72;;
86223;SDS011;76887;48.558;12.170;2024-02-28T06:56:06;223.23;;;42.70;;
86223;SDS011;76887;48.558;12.170;2024-02-28T06:58:33;222.52;;;39.63;;
86223;SDS011;76887;48.558;12.170;2024-02-28T07:01:00;219.45;;;40.75;;
86223;SDS011;76887;48.558;12.170;2024-02-28T07:03:28;215.95;;;39.03;;
86223;SDS011;76887;48.558;12.170;2024-02-28T07:05:54;213.90;;;40.67;;
86223;SDS011;76887;48.558;12.170;2024-02-28T07:08:21;217.07;;;38.80;;
86223;SDS011;76887;48.558;12.170;2024-02-28T07:10:47;224.40;;;40.05;;
86223;SDS011;76887;48.558;12.170;2024-02-28T07:13:20;216.70;;;38.47;;
86223;SDS011;76887;48.558;12.170;2024-02-28T07:15:47;219.00;;;39.05;;
86223;SDS011;76887;48.558;12.170;2024-02-28T07:18:15;212.20;;;36.90;;
86223;SDS011;76887;48.558;12.170;2024-02-28T07:20:41;213.15;;;38.28;;
86223;SDS011;76887;48.558;12.170;2024-02-28T07:23:08;214.63;;;38.60;;
86223;SDS011;76887;48.558;12.170;2024-02-28T07:25:34;220.10;;;41.33;;
86223;SDS011;76887;48.558;12.170;2024-02-28T07:28:01;222.30;;;40.25;;
86223;SDS011;76887;48.558;12.170;2024-02-28T07:30:28;210.90;;;37.42;;
86223;SDS011;76887;48.558;12.170;2024-02-28T07:32:55;213.85;;;39.97;;
86223;SDS011;76887;48.558;12.170;2024-02-28T07:35:22;215.35;;;38.83;;
86223;SDS011;76887;48.558;12.170;2024-02-28T07:37:50;200.57;;;35.70;;
86223;SDS011;76887;48.558;12.170;2024-02-28T07:40:16;213.55;;;36.53;;
86223;SDS011;76887;48.558;12.170;2024-02-28T07:42:43;212.70;;;40.15;;
86223;SDS011;76887;48.558;12.170;2024-02-28T07:45:10;209.43;;;38.45;;
86223;SDS011;76887;48.558;12.170;2024-02-28T07:47:36;205.27;;;39.08;;
86223;SDS011;76887;48.558;12.170;2024-02-28T07:50:03;213.02;;;39.15;;
86223;SDS011;76887;48.558;12.170;2024-02-28T07:52:30;212.60;;;38.88;;
86223;SDS011;76887;48.558;12.170;2024-02-28T07:54:56;212.20;;;38.00;;
86223;SDS011;76887;48.558;12.170;2024-02-28T07:57:23;209.95;;;39.70;;
86223;SDS011;76887;48.558;12.170;2024-02-28T07:59:50;215.35;;;39.83;;
86223;SDS011;76887;48.558;12.170;2024-02-28T08:02:17;225.02;;;40.72;;
86223;SDS011;76887;48.558;12.170;2024-02-28T08:04:46;223.35;;;39.15;;
86223;SDS011;76887;48.558;12.170;2024-02-28T08:07:13;220.32;;;41.45;;
86223;SDS011;76887;48.558;12.170;2024-02-28T08:09:39;209.13;;;37.03;;
86223;SDS011;76887;48.558;12.170;2024-02-28T08:12:06;211.93;;;38.95;;
86223;SDS011;76887;48.558;12.170;2024-02-28T08:16:59;210.77;;;38.58;;
86223;SDS011;76887;48.558;12.170;2024-02-28T08:19:26;196.95;;;37.40;;
86223;SDS011;76887;48.558;12.170;2024-02-28T08:21:52;209.90;;;40.35;;
86223;SDS011;76887;48.558;12.170;2024-02-28T08:24:19;204.05;;;35.45;;
86223;SDS011;76887;48.558;12.170;2024-02-28T08:26:45;213.02;;;39.75;;
86223;SDS011;76887;48.558;12.170;2024-02-28T08:29:12;205.07;;;40.58;;
86223;SDS011;76887;48.558;12.170;2024-02-28T08:31:39;205.98;;;39.28;;
86223;SDS011;76887;48.558;12.170;2024-02-28T08:34:07;196.38;;;37.13;;
86223;SDS011;76887;48.558;12.170;2024-02-28T08:36:34;199.80;;;39.42;;
86223;SDS011;76887;48.558;12.170;2024-02-28T08:39:01;194.07;;;38.42;;
86223;SDS011;76887;48.558;12.170;2024-02-28T08:41:31;197.30;;;37.58;;
86223;SDS011;76887;48.558;12.170;2024-02-28T08:43:59;197.90;;;38.60;;
86223;SDS011;76887;48.558;12.170;2024-02-28T08:46:26;196.25;;;38.58;;
86223;SDS011;76887;48.558;12.170;2024-02-28T08:48:53;204.35;;;38.13;;
86223;SDS011;76887;48.558;12.170;2024-02-28T08:51:19;199.85;;;38.00;;
86223;SDS011;76887;48.558;12.170;2024-02-28T08:53:46;203.85;;;39.33;;
86223;SDS011;76887;48.558;12.170;2024-02-28T08:56:12;208.98;;;40.80;;
86223;SDS011;76887;48.558;12.170;2024-02-28T08:58:39;205.75;;;39.97;;
86223;SDS011;76887;48.558;12.170;2024-02-28T09:01:06;208.20;;;39.55;;
86223;SDS011;76887;48.558;12.170;2024-02-28T09:03:32;203.57;;;39.85;;
86223;SDS011;76887;48.558;12.170;2024-02-28T09:05:59;198.30;;;40.25;;
86223;SDS011;76887;48.558;12.170;2024-02-28T09:08:25;191.13;;;36.05;;
86223;SDS011;76887;48.558;12.170;2024-02-28T09:10:52;190.05;;;36.83;;
86223;SDS011;76887;48.558;12.170;2024-02-28T09:13:19;189.25;;;34.88;;
86223;SDS011;76887;48.558;12.170;2024-02-28T09:15:46;177.77;;;33.45;;
86223;SDS011;76887;48.558;12.170;2024-02-28T09:18:13;164.63;;;29.92;;
86223;SDS011;76887;48.558;12.170;2024-02-28T09:20:39;171.80;;;35.70;;
86223;SDS011;76887;48.558;12.170;2024-02-28T09:23:06;168.10;;;34.20;;
86223;SDS011;76887;48.558;12.170;2024-02-28T09:25:33;179.27;;;35.58;;
86223;SDS011;76887;48.558;12.170;2024-02-28T09:28:02;169.68;;;32.70;;
86223;SDS011;76887;48.558;12.170;2024-02-28T09:30:29;171.27;;;34.42;;
86223;SDS011;76887;48.558;12.170;2024-02-28T09:33:08;189.25;;;38.38;;
86223;SDS011;76887;48.558;12.170;2024-02-28T09:35:35;172.73;;;33.15;;
86223;SDS011;76887;48.558;12.170;2024-02-28T09:38:02;181.82;;;37.08;;
86223;SDS011;76887;48.558;12.170;2024-02-28T09:40:30;169.23;;;35.65;;
86223;SDS011;76887;48.558;12.170;2024-02-28T09:43:03;176.30;;;37.05;;
86223;SDS011;76887;48.558;12.170;2024-02-28T09:45:30;178.10;;;36.67;;
86223;SDS011;76887;48.558;12.170;2024-02-28T09:47:59;179.38;;;35.72;;
86223;SDS011;76887;48.558;12.170;2024-02-28T09:50:26;177.23;;;37.85;;
86223;SDS011;76887;48.558;12.170;2024-02-28T09:52:53;177.75;;;37.65;;
86223;SDS011;76887;48.558;12.170;2024-02-28T09:55:35;187.98;;;38.83;;
86223;SDS011;76887;48.558;12.170;2024-02-28T09:58:01;184.73;;;37.78;;
86223;SDS011;76887;48.558;12.170;2024-02-28T10:00:30;180.35;;;36.80;;
86223;SDS011;76887;48.558;12.170;2024-02-28T10:02:57;191.27;;;40.45;;
86223;SDS011;76887;48.558;12.170;2024-02-28T10:05:25;179.23;;;36.13;;
86223;SDS011;76887;48.558;12.170;2024-02-28T10:07:54;181.75;;;37.78;;
86223;SDS011;76887;48.558;12.170;2024-02-28T10:10:22;192.30;;;40.72;;
86223;SDS011;76887;48.558;12.170;2024-02-28T10:12:48;193.20;;;38.05;;
86223;SDS011;76887;48.558;12.170;2024-02-28T10:15:15;192.05;;;38.92;;
86223;SDS011;76887;48.558;12.170;2024-02-28T10:17:41;192.10;;;40.20;;
86223;SDS011;76887;48.558;12.170;2024-02-28T10:20:10;188.85;;;39.35;;
86223;SDS011;76887;48.558;12.170;2024-02-28T10:22:37;195.75;;;40.33;;
86223;SDS011;76887;48.558;12.170;2024-02-28T10:25:03;193.88;;;39.78;;
86223;SDS011;76887;48.558;12.170;2024-02-28T10:27:34;194.18;;;40.80;;
86223;SDS011;76887;48.558;12.170;2024-02-28T10:30:02;197.20;;;40.47;;
86223;SDS011;76887;48.558;12.170;2024-02-28T10:32:32;192.32;;;40.08;;
86223;SDS011;76887;48.558;12.170;2024-02-28T10:35:02;187.20;;;39.15;;
86223;SDS011;76887;48.558;12.170;2024-02-28T10:37:29;194.68;;;40.28;;
86223;SDS011;76887;48.558;12.170;2024-02-28T10:39:57;193.15;;;43.00;;
86223;SDS011;76887;48.558;12.170;2024-02-28T10:42:29;187.15;;;42.13;;
86223;SDS011;76887;48.558;12.170;2024-02-28T10:44:57;198.32;;;42.25;;
86223;SDS011;76887;48.558;12.170;2024-02-28T10:47:45;197.65;;;41.03;;
86223;SDS011;76887;48.558;12.170;2024-02-28T10:50:12;192.70;;;38.45;;
86223;SDS011;76887;48.558;12.170;2024-02-28T10:52:40;187.90;;;38.55;;
86223;SDS011;76887;48.558;12.170;2024-02-28T10:55:10;195.90;;;40.35;;
86223;SDS011;76887;48.558;12.170;2024-02-28T10:57:37;187.70;;;38.42;;
86223;SDS011;76887;48.558;12.170;2024-02-28T11:00:05;181.45;;;36.78;;
86223;SDS011;76887;48.558;12.170;2024-02-28T11:02:32;183.07;;;37.40;;
86223;SDS011;76887;48.558;12.170;2024-02-28T11:05:00;176.73;;;38.00;;
86223;SDS011;76887;48.558;12.170;2024-02-28T11:07:30;177.10;;;36.28;;
86223;SDS011;76887;48.558;12.170;2024-02-28T11:09:57;170.75;;;38.13;;
86223;SDS011;76887;48.558;12.170;2024-02-28T11:12:27;175.02;;;38.22;;
86223;SDS011;76887;48.558;12.170;2024-02-28T11:14:58;182.77;;;38.83;;
86223;SDS011;76887;48.558;12.170;2024-02-28T11:17:26;182.50;;;38.10;;
86223;SDS011;76887;48.558;12.170;2024-02-28T11:19:54;178.80;;;38.17;;
86223;SDS011;76887;48.558;12.170;2024-02-28T11:22:21;181.65;;;38.00;;
86223;SDS011;76887;48.558;12.170;2024-02-28T11:24:48;183.13;;;37.78;;
86223;SDS011;76887;48.558;12.170;2024-02-28T11:27:17;171.35;;;36.33;;
86223;SDS011;76887;48.558;12.170;2024-02-28T11:29:44;170.90;;;37.55;;
86223;SDS011;76887;48.558;12.170;2024-02-28T11:32:13;172.20;;;36.50;;
86223;SDS011;76887;48.558;12.170;2024-02-28T11:34:40;167.82;;;36.53;;
86223;SDS011;76887;48.558;12.170;2024-02-28T11:37:11;170.25;;;36.33;;
86223;SDS011;76887;48.558;12.170;2024-02-28T11:39:37;170.15;;;35.60;;
86223;SDS011;76887;48.558;12.170;2024-02-28T11:42:13;177.05;;;38.22;;
86223;SDS011;76887;48.558;12.170;2024-02-28T11:44:41;185.48;;;37.20;;
86223;SDS011;76887;48.558;12.170;2024-02-28T11:47:09;175.82;;;38.22;;
86223;SDS011;76887;48.558;12.170;2024-02-28T11:49:38;178.88;;;38.03;;
86223;SDS011;76887;48.558;12.170;2024-02-28T11:52:05;175.93;;;36.10;;
86223;SDS011;76887;48.558;12.170;2024-02-28T11:54:32;173.65;;;36.33;;
86223;SDS011;76887;48.558;12.170;2024-02-28T11:56:59;173.82;;;36.97;;
86223;SDS011;76887;48.558;12.170;2024-02-28T11:59:26;168.15;;;36.47;;
86223;SDS011;76887;48.558;12.170;2024-02-28T12:01:52;166.48;;;36.25;;
86223;SDS011;76887;48.558;12.170;2024-02-28T12:04:19;167.70;;;35.25;;
86223;SDS011;76887;48.558;12.170;2024-02-28T12:06:45;168.70;;;35.67;;
86223;SDS011;76887;48.558;12.170;2024-02-28T12:09:12;171.18;;;35.42;;
86223;SDS011;76887;48.558;12.170;2024-02-28T12:11:53;176.23;;;36.28;;
86223;SDS011;76887;48.558;12.170;2024-02-28T12:14:19;173.75;;;37.17;;
86223;SDS011;76887;48.558;12.170;2024-02-28T12:16:46;174.27;;;36.53;;
86223;SDS011;76887;48.558;12.170;2024-02-28T12:19:14;179.02;;;38.05;;
86223;SDS011;76887;48.558;12.170;2024-02-28T12:21:42;176.65;;;37.45;;
86223;SDS011;76887;48.558;12.170;2024-02-28T12:24:09;172.18;;;38.35;;
86223;SDS011;76887;48.558;12.170;2024-02-28T12:26:38;177.88;;;38.25;;
86223;SDS011;76887;48.558;12.170;2024-02-28T12:29:05;177.88;;;37.92;;
86223;SDS011;76887;48.558;12.170;2024-02-28T12:31:31;177.43;;;35.78;;
86223;SDS011;76887;48.558;12.170;2024-02-28T12:33:58;180.63;;;39.05;;
86223;SDS011;76887;48.558;12.170;2024-02-28T12:36:25;179.57;;;39.97;;
86223;SDS011;76887;48.558;12.170;2024-02-28T12:38:53;176.13;;;38.97;;
86223;SDS011;76887;48.558;12.170;2024-02-28T12:41:19;174.77;;;37.10;;
86223;SDS011;76887;48.558;12.170;2024-02-28T12:43:46;175.52;;;36.35;;
86223;SDS011;76887;48.558;12.170;2024-02-28T12:46:12;170.10;;;38.10;;
86223;SDS011;76887;48.558;12.170;2024-02-28T12:48:39;180.63;;;39.15;;
86223;SDS011;76887;48.558;12.170;2024-02-28T12:51:11;174.93;;;38.17;;
86223;SDS011;76887;48.558;12.170;2024-02-28T12:53:47;185.57;;;40.45;;
86223;SDS011;76887;48.558;12.170;2024-02-28T12:56:17;177.70;;;37.35;;
86223;SDS011;76887;48.558;12.170;2024-02-28T12:58:44;170.23;;;37.50;;
86223;SDS011;76887;48.558;12.170;2024-02-28T13:01:11;175.23;;;37.13;;
86223;SDS011;76887;48.558;12.170;2024-02-28T13:03:38;167.32;;;37.45;;
86223;SDS011;76887;48.558;12.170;2024-02-28T13:06:04;166.10;;;37.50;;
86223;SDS011;76887;48.558;12.170;2024-02-28T13:08:31;166.70;;;36.53;;
86223;SDS011;76887;48.558;12.170;2024-02-28T13:10:58;170.45;;;37.30;;
86223;SDS011;76887;48.558;12.170;2024-02-28T13:13:24;167.27;;;37.00;;
86223;SDS011;76887;48.558;12.170;2024-02-28T13:15:51;163.45;;;36.95;;
86223;SDS011;76887;48.558;12.170;2024-02-28T19:58:00;22.45;;;12.40;;
86223;SDS011;76887;48.558;12.170;2024-02-28T20:11:50;157.18;;;30.83;;
86223;SDS011;76887;48.558;12.170;2024-02-28T20:16:41;159.38;;;31.00;;
86223;SDS011;76887;48.558;12.170;2024-02-28T20:25:08;166.20;;;33.95;;
86223;SDS011;76887;48.558;12.170;2024-02-28T20:27:34;140.38;;;29.20;;
86223;SDS011;76887;48.558;12.170;2024-02-28T20:30:01;143.00;;;30.35;;
86223;SDS011;76887;48.558;12.170;2024-02-28T20:32:28;137.75;;;29.08;;
86223;SDS011;76887;48.558;12.170;2024-02-28T20:34:54;138.45;;;30.15;;
86223;SDS011;76887;48.558;12.170;2024-02-28T20:37:21;138.40;;;30.05;;
86223;SDS011;76887;48.558;12.170;2024-02-28T20:39:48;139.93;;;30.70;;
86223;SDS011;76887;48.558;12.170;2024-02-28T20:42:15;146.90;;;31.73;;
86223;SDS011;76887;48.558;12.170;2024-02-28T20:44:41;145.13;;;31.13;;
86223;SDS011;76887;48.558;12.170;2024-02-28T20:47:08;136.57;;;30.23;;
86223;SDS011;76887;48.558;12.170;2024-02-28T20:49:35;131.52;;;30.35;;
86223;SDS011;76887;48.558;12.170;2024-02-28T20:52:03;137.55;;;30.27;;
86223;SDS011;76887;48.558;12.170;2024-02-28T20:54:30;139.48;;;31.10;;
86223;SDS011;76887;48.558;12.170;2024-02-28T20:56:56;143.85;;;32.95;;
86223;SDS011;76887;48.558;12.170;2024-02-28T20:59:37;142.70;;;31.50;;
86223;SDS011;76887;48.558;12.170;2024-02-28T21:02:04;142.88;;;31.77;;
86223;SDS011;76887;48.558;12.170;2024-02-28T21:04:31;149.63;;;32.70;;
86223;SDS011;76887;48.558;12.170;2024-02-28T21:06:58;148.52;;;31.50;;
86223;SDS011;76887;48.558;12.170;2024-02-28T21:09:24;147.95;;;32.20;;